Ardeche — ONIV — position and weather

sailwx.info

Track history (hours):
 
Tides and Currents Weather Stations Pressure Air Temp Water Temp Dewpoint Dewpoint Depression Visibility Wind Speed Wind Dir Waves Ship Positions

Ardeche

Last reported at 2018-Jan-09 20:44 UTC. Time now 2018-Feb-24 18:03 UTC.
Position S 30°34' E 030°57'.
Warning: this ship's position is 45 days out of date.

Length 333 m; draft 11 m.

Type: Tanker. MMSI: 205710000.

Date/timePositionNaut miles runAvg speedWind from/ knotsBaromVisibWave heightAir tempDewpointWater temp
2018-Jan-09 20:44S 30°34' E 030°57'312.3
2018-Jan-09 20:30S 30°31' E 030°59'612.0
2018-Jan-09 20:00S 30°26' E 031°01'612.2
2018-Jan-09 19:30S 30°19' E 031°02'611.0
2018-Jan-09 19:00S 30°14' E 031°03'611.0
2018-Jan-09 18:30S 30°09' E 031°04'511.0
2018-Jan-09 18:00S 30°03' E 031°05'510.5
2018-Jan-09 17:30S 29°58' E 031°07'4 7.9
2018-Jan-09 17:00S 29°54' E 031°07'2 4.6
2018-Jan-09 16:30S 29°55' E 031°04'2 3.6
2018-Jan-09 16:00S 29°57' E 031°03'2 3.4
2018-Jan-09 15:30S 29°58' E 031°02'2 4.8
2018-Jan-09 15:00S 30°00' E 031°01'2 3.0
2018-Jan-09 14:30S 30°01' E 030°59'1 0.6
2018-Jan-09 13:04S 30°00' E 030°58'0 0.0
2018-Jan-09 12:46S 30°00' E 030°58'0 0.1
2018-Jan-09 12:28S 30°00' E 030°58'0 0.0
2018-Jan-09 11:52S 30°00' E 030°58'0 0.1
2018-Jan-09 11:28S 30°00' E 030°58'0 0.0
2018-Jan-09 10:52S 30°00' E 030°58'0 0.1
2018-Jan-09 10:28S 30°00' E 030°58'0 0.0
2018-Jan-09 09:22S 30°00' E 030°58'0 0.0
2018-Jan-09 02:10S 30°00' E 030°58'0 0.0
2018-Jan-08 23:52S 30°00' E 030°58'0 0.0
2018-Jan-08 20:34S 30°00' E 030°58'0 0.0
2018-Jan-08 13:52S 30°00' E 030°58'0 0.0
2018-Jan-08 13:13S 30°00' E 030°58'0 0.0
2018-Jan-08 12:58S 30°00' E 030°58'0 0.1
2018-Jan-08 12:28S 30°00' E 030°58'0 0.1
2018-Jan-08 11:58S 30°00' E 030°58'0 0.4
2018-Jan-08 11:10S 30°01' E 030°58'0 0.0
2018-Jan-08 03:10S 30°01' E 030°58'0 0.0
2018-Jan-08 02:16S 30°01' E 030°58'0 0.0
2018-Jan-08 01:52S 30°01' E 030°58'0 0.0
2018-Jan-08 01:22S 30°01' E 030°58'0 0.0
2018-Jan-08 00:58S 30°01' E 030°58'0 0.0
2018-Jan-08 00:28S 30°01' E 030°58'0 0.0
2018-Jan-07 23:58S 30°01' E 030°58'0 0.1
2018-Jan-07 23:28S 30°01' E 030°58'0 0.0
2018-Jan-07 22:58S 30°01' E 030°58'0 0.0
2018-Jan-07 22:28S 30°01' E 030°58'0 0.0
2018-Jan-07 21:52S 30°01' E 030°58'0 0.1
2018-Jan-07 21:28S 30°01' E 030°58'0 0.0
2018-Jan-07 16:31S 30°01' E 030°58'0 0.0
2018-Jan-07 16:28S 30°01' E 030°58'0 0.0
2018-Jan-07 15:52S 30°01' E 030°58'0 0.0
2018-Jan-07 15:28S 30°01' E 030°58'0 0.0
2018-Jan-07 14:58S 30°01' E 030°58'0 0.0
2018-Jan-07 14:28S 30°01' E 030°58'0 0.0
2018-Jan-07 13:46S 30°01' E 030°58'0 0.1
2018-Jan-07 13:28S 30°01' E 030°58'0 0.0
2018-Jan-07 12:58S 30°01' E 030°58'0 0.0
2018-Jan-07 12:28S 30°01' E 030°58'0 0.0
2018-Jan-07 11:52S 30°01' E 030°58'0 0.0
2018-Jan-07 11:28S 30°01' E 030°58'0 0.0
2018-Jan-07 10:58S 30°01' E 030°58'0 0.0
2018-Jan-07 10:28S 30°01' E 030°58'0 0.0
2018-Jan-07 09:58S 30°01' E 030°58'0 0.0
2018-Jan-07 09:28S 30°01' E 030°58'0 0.0
2018-Jan-07 08:52S 30°01' E 030°58'0 0.0
2018-Jan-07 08:04S 30°01' E 030°58'0 0.1
2018-Jan-07 07:58S 30°01' E 030°58'0 0.2
2018-Jan-07 07:30S 30°01' E 030°58'1 1.1
2018-Jan-07 07:00S 30°01' E 030°58'1 1.8
2018-Jan-07 06:30S 30°02' E 030°59'1 2.4
2018-Jan-07 06:00S 30°01' E 030°60'2 4.2
2018-Jan-07 05:30S 29°60' E 031°02'1 1.0
2018-Jan-07 05:00S 29°59' E 031°01'0 0.8
2018-Jan-07 04:30S 29°59' E 031°02'2 4.0
2018-Jan-07 04:00S 30°01' E 031°01'3 5.1
2018-Jan-07 03:30S 30°03' E 030°59'0 0.4
2018-Jan-07 02:59S 30°03' E 030°59'0 0.1
2018-Jan-07 02:11S 30°03' E 030°59'0 0.0
2018-Jan-07 01:59S 30°03' E 030°59'0 0.0
2018-Jan-07 01:29S 30°03' E 030°59'0 0.0
2018-Jan-07 00:29S 30°03' E 030°59'0 0.1
2018-Jan-06 23:59S 30°03' E 030°59'0 0.0
2018-Jan-06 23:29S 30°03' E 030°59'0 0.1
2018-Jan-06 22:59S 30°03' E 030°59'0 0.0
2018-Jan-06 22:29S 30°03' E 030°59'0 0.0
2018-Jan-06 21:59S 30°03' E 030°59'0 0.1
2018-Jan-06 21:26S 30°03' E 030°59'0 0.1
2018-Jan-06 20:53S 30°03' E 030°59'0 0.2
2018-Jan-06 20:29S 30°03' E 030°59'0 0.0
2018-Jan-06 19:59S 30°03' E 030°59'0 0.0
2018-Jan-06 19:29S 30°03' E 030°59'0 0.0
2018-Jan-06 18:59S 30°03' E 030°59'0 0.0
2018-Jan-06 18:26S 30°03' E 030°59'0 0.2
2018-Jan-06 18:00S 30°03' E 030°59'0 0.6
2018-Jan-06 17:30S 30°03' E 030°59'2 3.1
2018-Jan-06 17:00S 30°02' E 031°01'5 9.8
2018-Jan-06 16:30S 29°58' E 031°04'611.5
2018-Jan-06 16:00S 29°54' E 031°08'3 6.8
2018-Jan-06 15:30S 29°51' E 031°11'2 3.6
2018-Jan-06 15:00S 29°50' E 031°12'611.2
2018-Jan-06 14:31S 29°47' E 031°18'815.4
2018-Jan-06 14:00S 29°43' E 031°25'815.8
2018-Jan-06 13:30S 29°38' E 031°33'816.1
2018-Jan-06 13:00S 29°34' E 031°40'816.0
2018-Jan-06 12:30S 29°29' E 031°47'816.0
2018-Jan-06 12:00S 29°24' E 031°55'815.8
2018-Jan-06 11:30S 29°19' E 032°02'815.5
2018-Jan-06 11:00S 29°14' E 032°09'1315.0
2018-Jan-06 10:07S 29°06' E 032°21'314.3
2018-Jan-06 09:54S 29°04' E 032°24'614.4
2018-Jan-06 09:28S 29°00' E 032°29'714.9
2018-Jan-06 09:00S 28°56' E 032°36'815.3
2018-Jan-06 08:30S 28°51' E 032°42'915.4
2018-Jan-06 07:53S 28°44' E 032°50'615.4
2018-Jan-06 07:29S 28°40' E 032°55'815.5
2018-Jan-06 07:00S 28°34' E 033°01'915.5
2018-Jan-06 06:24S 28°28' E 033°08'615.5
2018-Jan-06 06:00S 28°24' E 033°13'915.5
2018-Jan-06 05:27S 28°18' E 033°20'815.6
2018-Jan-06 04:58S 28°12' E 033°27'7015.7
2018-Jan-06 00:32S 27°24' E 034°23'015.7
2018-Jan-06 00:30S 27°24' E 034°24'  
Track history (hours):
 
Tides and Currents Weather Stations Pressure Air Temp Water Temp Dewpoint Dewpoint Depression Visibility Wind Speed Wind Dir Waves Ship Positions

Ardeche

Last reported at 2018-Jan-09 20:44 UTC. Time now 2018-Feb-24 18:03 UTC.
Position S 30°34' E 030°57'.
Warning: this ship's position is 45 days out of date.

Length 333 m; draft 11 m.

Type: Tanker. MMSI: 205710000.

Date/timePositionNaut miles runAvg speedWind from/ knotsBaromVisibWave heightAir tempDewpointWater temp
2018-Jan-09 20:44S 30°34' E 030°57'312.3
2018-Jan-09 20:30S 30°31' E 030°59'612.0
2018-Jan-09 20:00S 30°26' E 031°01'612.2
2018-Jan-09 19:30S 30°19' E 031°02'611.0
2018-Jan-09 19:00S 30°14' E 031°03'611.0
2018-Jan-09 18:30S 30°09' E 031°04'511.0
2018-Jan-09 18:00S 30°03' E 031°05'510.5
2018-Jan-09 17:30S 29°58' E 031°07'4 7.9
2018-Jan-09 17:00S 29°54' E 031°07'2 4.6
2018-Jan-09 16:30S 29°55' E 031°04'2 3.6
2018-Jan-09 16:00S 29°57' E 031°03'2 3.4
2018-Jan-09 15:30S 29°58' E 031°02'2 4.8
2018-Jan-09 15:00S 30°00' E 031°01'2 3.0
2018-Jan-09 14:30S 30°01' E 030°59'1 0.6
2018-Jan-09 13:04S 30°00' E 030°58'0 0.0
2018-Jan-09 12:46S 30°00' E 030°58'0 0.1
2018-Jan-09 12:28S 30°00' E 030°58'0 0.0
2018-Jan-09 11:52S 30°00' E 030°58'0 0.1
2018-Jan-09 11:28S 30°00' E 030°58'0 0.0
2018-Jan-09 10:52S 30°00' E 030°58'0 0.1
2018-Jan-09 10:28S 30°00' E 030°58'0 0.0
2018-Jan-09 09:22S 30°00' E 030°58'0 0.0
2018-Jan-09 02:10S 30°00' E 030°58'0 0.0
2018-Jan-08 23:52S 30°00' E 030°58'0 0.0
2018-Jan-08 20:34S 30°00' E 030°58'0 0.0
2018-Jan-08 13:52S 30°00' E 030°58'0 0.0
2018-Jan-08 13:13S 30°00' E 030°58'0 0.0
2018-Jan-08 12:58S 30°00' E 030°58'0 0.1
2018-Jan-08 12:28S 30°00' E 030°58'0 0.1
2018-Jan-08 11:58S 30°00' E 030°58'0 0.4
2018-Jan-08 11:10S 30°01' E 030°58'0 0.0
2018-Jan-08 03:10S 30°01' E 030°58'0 0.0
2018-Jan-08 02:16S 30°01' E 030°58'0 0.0
2018-Jan-08 01:52S 30°01' E 030°58'0 0.0
2018-Jan-08 01:22S 30°01' E 030°58'0 0.0
2018-Jan-08 00:58S 30°01' E 030°58'0 0.0
2018-Jan-08 00:28S 30°01' E 030°58'0 0.0
2018-Jan-07 23:58S 30°01' E 030°58'0 0.1
2018-Jan-07 23:28S 30°01' E 030°58'0 0.0
2018-Jan-07 22:58S 30°01' E 030°58'0 0.0
2018-Jan-07 22:28S 30°01' E 030°58'0 0.0
2018-Jan-07 21:52S 30°01' E 030°58'0 0.1
2018-Jan-07 21:28S 30°01' E 030°58'0 0.0
2018-Jan-07 16:31S 30°01' E 030°58'0 0.0
2018-Jan-07 16:28S 30°01' E 030°58'0 0.0
2018-Jan-07 15:52S 30°01' E 030°58'0 0.0
2018-Jan-07 15:28S 30°01' E 030°58'0 0.0
2018-Jan-07 14:58S 30°01' E 030°58'0 0.0
2018-Jan-07 14:28S 30°01' E 030°58'0 0.0
2018-Jan-07 13:46S 30°01' E 030°58'0 0.1
2018-Jan-07 13:28S 30°01' E 030°58'0 0.0
2018-Jan-07 12:58S 30°01' E 030°58'0 0.0
2018-Jan-07 12:28S 30°01' E 030°58'0 0.0
2018-Jan-07 11:52S 30°01' E 030°58'0 0.0
2018-Jan-07 11:28S 30°01' E 030°58'0 0.0
2018-Jan-07 10:58S 30°01' E 030°58'0 0.0
2018-Jan-07 10:28S 30°01' E 030°58'0 0.0
2018-Jan-07 09:58S 30°01' E 030°58'0 0.0
2018-Jan-07 09:28S 30°01' E 030°58'0 0.0
2018-Jan-07 08:52S 30°01' E 030°58'0 0.0
2018-Jan-07 08:04S 30°01' E 030°58'0 0.1
2018-Jan-07 07:58S 30°01' E 030°58'0 0.2
2018-Jan-07 07:30S 30°01' E 030°58'1 1.1
2018-Jan-07 07:00S 30°01' E 030°58'1 1.8
2018-Jan-07 06:30S 30°02' E 030°59'1 2.4
2018-Jan-07 06:00S 30°01' E 030°60'2 4.2
2018-Jan-07 05:30S 29°60' E 031°02'1 1.0
2018-Jan-07 05:00S 29°59' E 031°01'0 0.8
2018-Jan-07 04:30S 29°59' E 031°02'2 4.0
2018-Jan-07 04:00S 30°01' E 031°01'3 5.1
2018-Jan-07 03:30S 30°03' E 030°59'0 0.4
2018-Jan-07 02:59S 30°03' E 030°59'0 0.1
2018-Jan-07 02:11S 30°03' E 030°59'0 0.0
2018-Jan-07 01:59S 30°03' E 030°59'0 0.0
2018-Jan-07 01:29S 30°03' E 030°59'0 0.0
2018-Jan-07 00:29S 30°03' E 030°59'0 0.1
2018-Jan-06 23:59S 30°03' E 030°59'0 0.0
2018-Jan-06 23:29S 30°03' E 030°59'0 0.1
2018-Jan-06 22:59S 30°03' E 030°59'0 0.0
2018-Jan-06 22:29S 30°03' E 030°59'0 0.0
2018-Jan-06 21:59S 30°03' E 030°59'0 0.1
2018-Jan-06 21:26S 30°03' E 030°59'0 0.1
2018-Jan-06 20:53S 30°03' E 030°59'0 0.2
2018-Jan-06 20:29S 30°03' E 030°59'0 0.0
2018-Jan-06 19:59S 30°03' E 030°59'0 0.0
2018-Jan-06 19:29S 30°03' E 030°59'0 0.0
2018-Jan-06 18:59S 30°03' E 030°59'0 0.0
2018-Jan-06 18:26S 30°03' E 030°59'0 0.2
2018-Jan-06 18:00S 30°03' E 030°59'0 0.6
2018-Jan-06 17:30S 30°03' E 030°59'2 3.1
2018-Jan-06 17:00S 30°02' E 031°01'5 9.8
2018-Jan-06 16:30S 29°58' E 031°04'611.5
2018-Jan-06 16:00S 29°54' E 031°08'3 6.8
2018-Jan-06 15:30S 29°51' E 031°11'2 3.6
2018-Jan-06 15:00S 29°50' E 031°12'611.2
2018-Jan-06 14:31S 29°47' E 031°18'815.4
2018-Jan-06 14:00S 29°43' E 031°25'815.8
2018-Jan-06 13:30S 29°38' E 031°33'816.1
2018-Jan-06 13:00S 29°34' E 031°40'816.0
2018-Jan-06 12:30S 29°29' E 031°47'816.0
2018-Jan-06 12:00S 29°24' E 031°55'815.8
2018-Jan-06 11:30S 29°19' E 032°02'815.5
2018-Jan-06 11:00S 29°14' E 032°09'1315.0
2018-Jan-06 10:07S 29°06' E 032°21'314.3
2018-Jan-06 09:54S 29°04' E 032°24'614.4
2018-Jan-06 09:28S 29°00' E 032°29'714.9
2018-Jan-06 09:00S 28°56' E 032°36'815.3
2018-Jan-06 08:30S 28°51' E 032°42'915.4
2018-Jan-06 07:53S 28°44' E 032°50'615.4
2018-Jan-06 07:29S 28°40' E 032°55'815.5
2018-Jan-06 07:00S 28°34' E 033°01'915.5
2018-Jan-06 06:24S 28°28' E 033°08'615.5
2018-Jan-06 06:00S 28°24' E 033°13'915.5
2018-Jan-06 05:27S 28°18' E 033°20'815.6
2018-Jan-06 04:58S 28°12' E 033°27'7015.7
2018-Jan-06 00:32S 27°24' E 034°23'015.7
2018-Jan-06 00:30S 27°24' E 034°24'  

Dump ship's entire track history